SWA2557 KPHL-KDEN
Flight info
| Callsign | SWA2557 |
|---|---|
| Flight time | N/A |
| Altitude | 34000 |
| Route | PTW SARAA RAV PSB J60 TYSUN/N0456F360 J60 DJB CPONE JOT J60 IOW DSM OBH BRWRY LAWGR4 |
| Aircraft | B738/M-SDE2E3FGHIRWXY/LB1 |
Departure
| Time | 2026-05-03 20:43 |
|---|---|
| Airport | Philadelphia International Airport (KPHL) |
Arrival
| Time | N/A |
|---|---|
| Airport | Denver International Airport (KDEN) |
| Time | Latitude | Longitude | Altitude | Speed | Heading |
|---|---|---|---|---|---|
| 2026-05-03 20:39 | 39.87424 | -75.23761 | 20 ft | 1 kts | 257° |
| 2026-05-03 20:39 | 39.87422 | -75.23769 | 20 ft | 2 kts | 255° |
| 2026-05-03 20:40 | 39.87413 | -75.23813 | 20 ft | 6 kts | 275° |
| 2026-05-03 20:40 | 39.87394 | -75.23858 | 21 ft | 7 kts | 212° |
| 2026-05-03 20:40 | 39.87328 | -75.23864 | 20 ft | 15 kts | 166° |
| 2026-05-03 20:40 | 39.87196 | -75.23817 | 22 ft | 23 kts | 178° |
| 2026-05-03 20:41 | 39.87063 | -75.23889 | 22 ft | 17 kts | 197° |
| 2026-05-03 20:41 | 39.86958 | -75.23951 | 20 ft | 17 kts | 191° |
| 2026-05-03 20:41 | 39.86931 | -75.23947 | 19 ft | 0 kts | 161° |
| 2026-05-03 20:41 | 39.86926 | -75.23945 | 19 ft | 3 kts | 165° |
| 2026-05-03 20:42 | 39.86864 | -75.23926 | 17 ft | 15 kts | 169° |
| 2026-05-03 20:42 | 39.86778 | -75.24031 | 15 ft | 22 kts | 254° |
| 2026-05-03 20:42 | 39.86727 | -75.24289 | 17 ft | 53 kts | 255° |
| 2026-05-03 20:42 | 39.86560 | -75.25124 | 25 ft | 134 kts | 256° |
| 2026-05-03 20:43 | 39.86226 | -75.26517 | 422 ft | 172 kts | 253° |
| 2026-05-03 20:43 | 39.85871 | -75.27921 | 1865 ft | 155 kts | 268° |
| 2026-05-03 20:43 | 39.85748 | -75.29227 | 3114 ft | 145 kts | 266° |
| 2026-05-03 20:43 | 39.85824 | -75.30718 | 2931 ft | 197 kts | 287° |
| 2026-05-03 20:44 | 39.86589 | -75.32482 | 2957 ft | 238 kts | 313° |
| 2026-05-03 20:44 | 39.87981 | -75.33652 | 3993 ft | 240 kts | 333° |
| 2026-05-03 20:44 | 39.89517 | -75.34524 | 4924 ft | 244 kts | 332° |
| 2026-05-03 20:44 | 39.91073 | -75.35461 | 5777 ft | 246 kts | 332° |
| 2026-05-03 20:45 | 39.92616 | -75.36420 | 6686 ft | 247 kts | 331° |
| 2026-05-03 20:45 | 39.94167 | -75.37405 | 7532 ft | 249 kts | 331° |
| 2026-05-03 20:45 | 39.95728 | -75.38412 | 8345 ft | 252 kts | 331° |
| 2026-05-03 20:45 | 39.97307 | -75.39440 | 9175 ft | 255 kts | 330° |
| 2026-05-03 20:46 | 39.98882 | -75.40472 | 10003 ft | 257 kts | 330° |
| 2026-05-03 20:46 | 40.00495 | -75.41534 | 10720 ft | 262 kts | 330° |
| 2026-05-03 20:46 | 40.02138 | -75.42620 | 11388 ft | 267 kts | 330° |
| 2026-05-03 20:46 | 40.03805 | -75.43725 | 12125 ft | 270 kts | 330° |
| 2026-05-03 20:47 | 40.04218 | -75.44000 | 12302 ft | 272 kts | 330° |
| 2026-05-03 20:47 | 40.05578 | -75.44903 | 12899 ft | 274 kts | 330° |
| 2026-05-03 20:48 | 40.07281 | -75.46036 | 13675 ft | 276 kts | 330° |
| 2026-05-03 20:48 | 40.09004 | -75.47183 | 14372 ft | 278 kts | 329° |
| 2026-05-03 20:48 | 40.10738 | -75.48339 | 15042 ft | 281 kts | 329° |